KMOT/MOT METAR and TAF weather

Enter ICAO airport designator
Station Type Date Time Source
KMOT METAR 2019/10/15 21:54 UTC NOAA

KMOT 152154Z 29014G19KT 10SM OVC026 06/01 A3018 RMK AO2 SLP236 T00560011


Station Type Date Time Source
KMOT Decoded METAR 2019/10/15 21:54 UTC NOAA

MINOT INTERNATIONAL AIRPORT , ND, United States (KMOT) 48-16N 101-17W 519M
Oct 15, 2019 - 05:54 PM EDT / 2019.10.15 2154 UTC
Wind: from the WNW (290 degrees) at 16 MPH (14 KT) gusting to 22 MPH (19 KT):0
Visibility: 10 mile(s):0
Sky conditions: overcast
Temperature: 42.1 F (5.6 C)
Dew Point: 34.0 F (1.1 C)
Relative Humidity: 72%
Pressure (altimeter): 30.18 in. Hg (1022 hPa)
ob: KMOT 152154Z 29014G19KT 10SM OVC026 06/01 A3018 RMK AO2 SLP236 T00560011
cycle: 22

Station Type Date Time Source
KMOT TAF 2019/10/15 21:45 UTC NOAA

TAF
AMD KMOT 152043Z 1521/1618 31015G20KT P6SM SCT016 OVC023
TEMPO 1521/1523 BKN016
FM152300 31012KT P6SM OVC016
FM160600 00000KT P6SM BKN040
FM161600 17010G18KT P6SM BKN080

Example: see airport list